sensor_id;sensor_type;location;lat;lon;timestamp;P1;durP1;ratioP1;P2;durP2;ratioP2
25207;SDS011;13153;52.316;21.166;2023-03-23T00:01:47;44.38;;;25.30;;
25207;SDS011;13153;52.316;21.166;2023-03-23T00:04:16;48.08;;;25.95;;
25207;SDS011;13153;52.316;21.166;2023-03-23T00:06:42;43.75;;;26.00;;
25207;SDS011;13153;52.316;21.166;2023-03-23T00:09:10;46.60;;;26.15;;
25207;SDS011;13153;52.316;21.166;2023-03-23T00:11:40;45.72;;;26.02;;
25207;SDS011;13153;52.316;21.166;2023-03-23T00:14:08;46.65;;;26.17;;
25207;SDS011;13153;52.316;21.166;2023-03-23T00:16:41;46.05;;;25.38;;
25207;SDS011;13153;52.316;21.166;2023-03-23T00:19:11;44.90;;;25.90;;
25207;SDS011;13153;52.316;21.166;2023-03-23T00:21:38;46.28;;;26.75;;
25207;SDS011;13153;52.316;21.166;2023-03-23T00:24:11;45.15;;;26.58;;
25207;SDS011;13153;52.316;21.166;2023-03-23T00:26:47;40.65;;;24.15;;
25207;SDS011;13153;52.316;21.166;2023-03-23T00:29:17;43.97;;;25.17;;
25207;SDS011;13153;52.316;21.166;2023-03-23T00:31:47;41.55;;;25.35;;
25207;SDS011;13153;52.316;21.166;2023-03-23T00:34:17;46.22;;;25.90;;
25207;SDS011;13153;52.316;21.166;2023-03-23T00:36:53;46.65;;;25.92;;
25207;SDS011;13153;52.316;21.166;2023-03-23T00:39:23;48.83;;;25.95;;
25207;SDS011;13153;52.316;21.166;2023-03-23T00:41:51;42.95;;;25.58;;
25207;SDS011;13153;52.316;21.166;2023-03-23T00:44:25;40.40;;;25.55;;
25207;SDS011;13153;52.316;21.166;2023-03-23T00:46:56;45.83;;;26.58;;
25207;SDS011;13153;52.316;21.166;2023-03-23T00:49:24;46.72;;;25.85;;
25207;SDS011;13153;52.316;21.166;2023-03-23T00:51:51;44.17;;;27.05;;
25207;SDS011;13153;52.316;21.166;2023-03-23T00:54:22;46.30;;;25.88;;
25207;SDS011;13153;52.316;21.166;2023-03-23T00:56:50;44.08;;;26.33;;
25207;SDS011;13153;52.316;21.166;2023-03-23T00:59:17;42.60;;;26.17;;
25207;SDS011;13153;52.316;21.166;2023-03-23T01:01:43;46.55;;;27.38;;
25207;SDS011;13153;52.316;21.166;2023-03-23T01:04:10;47.25;;;27.08;;
25207;SDS011;13153;52.316;21.166;2023-03-23T01:06:37;43.90;;;26.40;;
25207;SDS011;13153;52.316;21.166;2023-03-23T01:09:06;44.03;;;26.25;;
25207;SDS011;13153;52.316;21.166;2023-03-23T01:11:35;49.25;;;26.30;;
25207;SDS011;13153;52.316;21.166;2023-03-23T01:14:03;45.08;;;25.38;;
25207;SDS011;13153;52.316;21.166;2023-03-23T01:16:30;42.22;;;26.33;;
25207;SDS011;13153;52.316;21.166;2023-03-23T01:18:55;48.50;;;27.23;;
25207;SDS011;13153;52.316;21.166;2023-03-23T01:21:21;45.05;;;26.42;;
25207;SDS011;13153;52.316;21.166;2023-03-23T01:23:48;43.90;;;25.55;;
25207;SDS011;13153;52.316;21.166;2023-03-23T01:26:18;48.97;;;25.88;;
25207;SDS011;13153;52.316;21.166;2023-03-23T01:28:48;44.03;;;26.13;;
25207;SDS011;13153;52.316;21.166;2023-03-23T01:31:17;47.38;;;26.38;;
25207;SDS011;13153;52.316;21.166;2023-03-23T01:33:47;46.55;;;26.27;;
25207;SDS011;13153;52.316;21.166;2023-03-23T01:36:19;46.38;;;26.52;;
25207;SDS011;13153;52.316;21.166;2023-03-23T01:38:48;44.35;;;26.20;;
25207;SDS011;13153;52.316;21.166;2023-03-23T01:41:15;43.38;;;25.88;;
25207;SDS011;13153;52.316;21.166;2023-03-23T01:43:56;53.80;;;27.88;;
25207;SDS011;13153;52.316;21.166;2023-03-23T01:46:51;50.92;;;27.58;;
25207;SDS011;13153;52.316;21.166;2023-03-23T01:49:21;50.30;;;27.42;;
25207;SDS011;13153;52.316;21.166;2023-03-23T01:52:06;50.42;;;25.38;;
25207;SDS011;13153;52.316;21.166;2023-03-23T01:54:42;47.60;;;27.13;;
25207;SDS011;13153;52.316;21.166;2023-03-23T01:57:12;44.22;;;26.00;;
25207;SDS011;13153;52.316;21.166;2023-03-23T01:59:43;46.75;;;26.67;;
25207;SDS011;13153;52.316;21.166;2023-03-23T02:02:14;47.45;;;26.30;;
25207;SDS011;13153;52.316;21.166;2023-03-23T02:04:41;43.85;;;25.33;;
25207;SDS011;13153;52.316;21.166;2023-03-23T02:07:07;48.63;;;26.63;;
25207;SDS011;13153;52.316;21.166;2023-03-23T02:09:34;46.15;;;26.13;;
25207;SDS011;13153;52.316;21.166;2023-03-23T02:12:00;46.45;;;25.88;;
25207;SDS011;13153;52.316;21.166;2023-03-23T02:14:27;47.15;;;25.98;;
25207;SDS011;13153;52.316;21.166;2023-03-23T02:20:07;45.95;;;26.30;;
25207;SDS011;13153;52.316;21.166;2023-03-23T02:31:26;45.95;;;25.70;;
25207;SDS011;13153;52.316;21.166;2023-03-23T02:34:20;44.85;;;25.13;;
25207;SDS011;13153;52.316;21.166;2023-03-23T02:37:09;47.13;;;26.50;;
25207;SDS011;13153;52.316;21.166;2023-03-23T02:40:12;46.33;;;26.10;;
25207;SDS011;13153;52.316;21.166;2023-03-23T02:42:49;48.65;;;26.33;;
25207;SDS011;13153;52.316;21.166;2023-03-23T02:45:20;49.95;;;27.42;;
25207;SDS011;13153;52.316;21.166;2023-03-23T02:47:52;45.70;;;26.25;;
25207;SDS011;13153;52.316;21.166;2023-03-23T02:50:21;48.50;;;27.10;;
25207;SDS011;13153;52.316;21.166;2023-03-23T02:52:50;44.90;;;26.20;;
25207;SDS011;13153;52.316;21.166;2023-03-23T02:55:23;44.65;;;26.05;;
25207;SDS011;13153;52.316;21.166;2023-03-23T02:57:51;49.20;;;26.27;;
25207;SDS011;13153;52.316;21.166;2023-03-23T03:00:20;44.67;;;26.00;;
25207;SDS011;13153;52.316;21.166;2023-03-23T03:02:47;45.60;;;25.35;;
25207;SDS011;13153;52.316;21.166;2023-03-23T03:13:36;47.15;;;27.13;;
25207;SDS011;13153;52.316;21.166;2023-03-23T03:16:27;46.30;;;26.27;;
25207;SDS011;13153;52.316;21.166;2023-03-23T03:21:54;47.13;;;26.00;;
25207;SDS011;13153;52.316;21.166;2023-03-23T03:24:24;46.90;;;25.23;;
25207;SDS011;13153;52.316;21.166;2023-03-23T03:26:55;43.20;;;24.30;;
25207;SDS011;13153;52.316;21.166;2023-03-23T03:29:28;50.75;;;26.63;;
25207;SDS011;13153;52.316;21.166;2023-03-23T03:32:01;42.80;;;25.63;;
25207;SDS011;13153;52.316;21.166;2023-03-23T03:34:31;46.10;;;25.67;;
25207;SDS011;13153;52.316;21.166;2023-03-23T03:36:59;44.47;;;24.88;;
25207;SDS011;13153;52.316;21.166;2023-03-23T03:39:26;46.10;;;25.50;;
25207;SDS011;13153;52.316;21.166;2023-03-23T03:41:53;48.97;;;27.88;;
25207;SDS011;13153;52.316;21.166;2023-03-23T03:44:20;48.15;;;28.35;;
25207;SDS011;13153;52.316;21.166;2023-03-23T03:46:46;51.22;;;28.83;;
25207;SDS011;13153;52.316;21.166;2023-03-23T03:49:12;46.70;;;27.38;;
25207;SDS011;13153;52.316;21.166;2023-03-23T03:51:38;50.10;;;27.63;;
25207;SDS011;13153;52.316;21.166;2023-03-23T03:54:05;46.83;;;29.33;;
25207;SDS011;13153;52.316;21.166;2023-03-23T03:56:32;47.40;;;28.10;;
25207;SDS011;13153;52.316;21.166;2023-03-23T03:59:05;45.03;;;26.33;;
25207;SDS011;13153;52.316;21.166;2023-03-23T04:01:33;46.47;;;27.27;;
25207;SDS011;13153;52.316;21.166;2023-03-23T04:03:59;48.42;;;26.33;;
25207;SDS011;13153;52.316;21.166;2023-03-23T04:06:25;41.70;;;25.33;;
25207;SDS011;13153;52.316;21.166;2023-03-23T04:08:53;42.67;;;25.30;;
25207;SDS011;13153;52.316;21.166;2023-03-23T04:11:21;47.05;;;25.40;;
25207;SDS011;13153;52.316;21.166;2023-03-23T04:13:46;42.67;;;25.05;;
25207;SDS011;13153;52.316;21.166;2023-03-23T04:16:12;45.22;;;25.05;;
25207;SDS011;13153;52.316;21.166;2023-03-23T04:18:38;42.58;;;25.20;;
25207;SDS011;13153;52.316;21.166;2023-03-23T04:21:04;45.35;;;25.02;;
25207;SDS011;13153;52.316;21.166;2023-03-23T04:23:33;47.70;;;24.40;;
25207;SDS011;13153;52.316;21.166;2023-03-23T04:26:00;47.13;;;25.35;;
25207;SDS011;13153;52.316;21.166;2023-03-23T04:28:28;45.47;;;26.15;;
25207;SDS011;13153;52.316;21.166;2023-03-23T04:30:54;46.10;;;26.95;;
25207;SDS011;13153;52.316;21.166;2023-03-23T04:33:23;47.70;;;26.85;;
25207;SDS011;13153;52.316;21.166;2023-03-23T04:35:52;43.67;;;24.95;;
25207;SDS011;13153;52.316;21.166;2023-03-23T04:38:20;45.05;;;25.65;;
25207;SDS011;13153;52.316;21.166;2023-03-23T04:40:48;45.35;;;24.95;;
25207;SDS011;13153;52.316;21.166;2023-03-23T04:43:17;49.67;;;27.15;;
25207;SDS011;13153;52.316;21.166;2023-03-23T04:45:46;45.33;;;25.40;;
25207;SDS011;13153;52.316;21.166;2023-03-23T04:48:21;42.28;;;25.67;;
25207;SDS011;13153;52.316;21.166;2023-03-23T04:50:52;46.60;;;25.48;;
25207;SDS011;13153;52.316;21.166;2023-03-23T04:53:19;56.08;;;31.92;;
25207;SDS011;13153;52.316;21.166;2023-03-23T04:55:46;46.95;;;28.35;;
25207;SDS011;13153;52.316;21.166;2023-03-23T04:58:14;48.85;;;26.08;;
25207;SDS011;13153;52.316;21.166;2023-03-23T05:00:42;43.10;;;23.73;;
25207;SDS011;13153;52.316;21.166;2023-03-23T05:03:14;40.08;;;23.50;;
25207;SDS011;13153;52.316;21.166;2023-03-23T05:05:44;44.65;;;25.20;;
25207;SDS011;13153;52.316;21.166;2023-03-23T05:08:22;47.05;;;24.67;;
25207;SDS011;13153;52.316;21.166;2023-03-23T05:10:55;42.85;;;24.70;;
25207;SDS011;13153;52.316;21.166;2023-03-23T05:13:23;44.58;;;24.85;;
25207;SDS011;13153;52.316;21.166;2023-03-23T05:15:49;40.67;;;24.65;;
25207;SDS011;13153;52.316;21.166;2023-03-23T05:18:16;43.08;;;25.65;;
25207;SDS011;13153;52.316;21.166;2023-03-23T05:20:42;44.40;;;25.88;;
25207;SDS011;13153;52.316;21.166;2023-03-23T05:23:08;43.75;;;25.50;;
25207;SDS011;13153;52.316;21.166;2023-03-23T05:25:35;40.20;;;23.77;;
25207;SDS011;13153;52.316;21.166;2023-03-23T05:28:05;40.63;;;23.38;;
25207;SDS011;13153;52.316;21.166;2023-03-23T05:30:33;46.35;;;26.48;;
25207;SDS011;13153;52.316;21.166;2023-03-23T05:33:00;48.45;;;25.08;;
25207;SDS011;13153;52.316;21.166;2023-03-23T05:35:26;47.90;;;25.00;;
25207;SDS011;13153;52.316;21.166;2023-03-23T05:37:52;41.80;;;23.73;;
25207;SDS011;13153;52.316;21.166;2023-03-23T05:40:18;42.38;;;23.30;;
25207;SDS011;13153;52.316;21.166;2023-03-23T05:42:45;37.70;;;22.80;;
25207;SDS011;13153;52.316;21.166;2023-03-23T05:45:13;40.72;;;22.35;;
25207;SDS011;13153;52.316;21.166;2023-03-23T05:47:40;39.00;;;22.25;;
25207;SDS011;13153;52.316;21.166;2023-03-23T05:50:07;38.60;;;21.75;;
25207;SDS011;13153;52.316;21.166;2023-03-23T05:52:34;37.42;;;22.48;;
25207;SDS011;13153;52.316;21.166;2023-03-23T05:55:01;39.22;;;23.77;;
25207;SDS011;13153;52.316;21.166;2023-03-23T05:57:29;43.65;;;24.85;;
25207;SDS011;13153;52.316;21.166;2023-03-23T05:59:55;48.05;;;25.88;;
25207;SDS011;13153;52.316;21.166;2023-03-23T06:02:22;42.88;;;25.83;;
25207;SDS011;13153;52.316;21.166;2023-03-23T06:04:50;39.17;;;24.50;;
25207;SDS011;13153;52.316;21.166;2023-03-23T06:07:22;39.97;;;22.85;;
25207;SDS011;13153;52.316;21.166;2023-03-23T06:09:49;42.40;;;23.83;;
25207;SDS011;13153;52.316;21.166;2023-03-23T06:12:16;37.92;;;23.17;;
25207;SDS011;13153;52.316;21.166;2023-03-23T06:14:45;43.08;;;22.90;;
25207;SDS011;13153;52.316;21.166;2023-03-23T06:17:13;37.70;;;21.90;;
25207;SDS011;13153;52.316;21.166;2023-03-23T06:19:43;33.65;;;21.08;;
25207;SDS011;13153;52.316;21.166;2023-03-23T06:22:11;38.20;;;21.85;;
25207;SDS011;13153;52.316;21.166;2023-03-23T06:24:37;36.33;;;21.67;;
25207;SDS011;13153;52.316;21.166;2023-03-23T06:27:03;35.30;;;20.50;;
25207;SDS011;13153;52.316;21.166;2023-03-23T06:29:29;40.53;;;20.98;;
25207;SDS011;13153;52.316;21.166;2023-03-23T06:31:56;33.55;;;20.65;;
25207;SDS011;13153;52.316;21.166;2023-03-23T06:34:30;33.92;;;20.38;;
25207;SDS011;13153;52.316;21.166;2023-03-23T06:36:57;30.02;;;20.02;;
25207;SDS011;13153;52.316;21.166;2023-03-23T06:39:24;32.17;;;19.38;;
25207;SDS011;13153;52.316;21.166;2023-03-23T06:41:50;39.10;;;19.25;;
25207;SDS011;13153;52.316;21.166;2023-03-23T06:44:16;33.50;;;19.00;;
25207;SDS011;13153;52.316;21.166;2023-03-23T06:46:42;38.28;;;18.95;;
25207;SDS011;13153;52.316;21.166;2023-03-23T06:49:08;32.67;;;19.73;;
25207;SDS011;13153;52.316;21.166;2023-03-23T06:51:35;29.33;;;18.30;;
25207;SDS011;13153;52.316;21.166;2023-03-23T06:54:02;34.42;;;18.27;;
25207;SDS011;13153;52.316;21.166;2023-03-23T06:56:29;32.80;;;19.20;;
25207;SDS011;13153;52.316;21.166;2023-03-23T06:58:56;33.45;;;18.60;;
25207;SDS011;13153;52.316;21.166;2023-03-23T07:01:22;35.83;;;20.13;;
25207;SDS011;13153;52.316;21.166;2023-03-23T07:03:48;32.28;;;18.77;;
25207;SDS011;13153;52.316;21.166;2023-03-23T07:06:14;33.78;;;18.83;;
25207;SDS011;13153;52.316;21.166;2023-03-23T07:08:41;31.30;;;18.80;;
25207;SDS011;13153;52.316;21.166;2023-03-23T07:11:07;35.28;;;18.92;;
25207;SDS011;13153;52.316;21.166;2023-03-23T07:13:34;31.42;;;17.83;;
25207;SDS011;13153;52.316;21.166;2023-03-23T07:16:04;29.60;;;18.40;;
25207;SDS011;13153;52.316;21.166;2023-03-23T07:18:31;27.85;;;16.63;;
25207;SDS011;13153;52.316;21.166;2023-03-23T07:20:57;29.48;;;16.30;;
25207;SDS011;13153;52.316;21.166;2023-03-23T07:23:24;29.00;;;15.93;;
25207;SDS011;13153;52.316;21.166;2023-03-23T07:25:50;25.60;;;15.40;;
25207;SDS011;13153;52.316;21.166;2023-03-23T07:28:15;25.60;;;15.95;;
25207;SDS011;13153;52.316;21.166;2023-03-23T07:30:41;27.17;;;15.45;;
25207;SDS011;13153;52.316;21.166;2023-03-23T07:33:07;25.08;;;15.15;;
25207;SDS011;13153;52.316;21.166;2023-03-23T07:35:34;29.85;;;14.68;;
25207;SDS011;13153;52.316;21.166;2023-03-23T07:38:00;25.27;;;14.65;;
25207;SDS011;13153;52.316;21.166;2023-03-23T07:40:29;23.90;;;14.77;;
25207;SDS011;13153;52.316;21.166;2023-03-23T07:42:58;23.63;;;14.38;;
25207;SDS011;13153;52.316;21.166;2023-03-23T07:45:25;26.35;;;14.32;;
25207;SDS011;13153;52.316;21.166;2023-03-23T07:47:52;23.98;;;13.85;;
25207;SDS011;13153;52.316;21.166;2023-03-23T07:50:18;25.00;;;13.45;;
25207;SDS011;13153;52.316;21.166;2023-03-23T07:52:47;23.58;;;13.50;;
25207;SDS011;13153;52.316;21.166;2023-03-23T07:55:13;24.20;;;12.82;;
25207;SDS011;13153;52.316;21.166;2023-03-23T07:57:45;24.60;;;13.02;;
25207;SDS011;13153;52.316;21.166;2023-03-23T08:00:14;19.00;;;12.35;;
25207;SDS011;13153;52.316;21.166;2023-03-23T08:02:48;22.45;;;12.18;;
25207;SDS011;13153;52.316;21.166;2023-03-23T08:05:22;21.00;;;12.43;;
25207;SDS011;13153;52.316;21.166;2023-03-23T08:07:51;20.45;;;11.60;;
25207;SDS011;13153;52.316;21.166;2023-03-23T08:10:19;22.73;;;11.57;;
25207;SDS011;13153;52.316;21.166;2023-03-23T08:12:51;19.98;;;11.05;;
25207;SDS011;13153;52.316;21.166;2023-03-23T08:15:19;17.02;;;10.35;;
25207;SDS011;13153;52.316;21.166;2023-03-23T08:17:46;17.85;;;10.57;;
25207;SDS011;13153;52.316;21.166;2023-03-23T08:20:13;22.08;;;10.68;;
25207;SDS011;13153;52.316;21.166;2023-03-23T08:22:42;19.38;;;10.38;;
25207;SDS011;13153;52.316;21.166;2023-03-23T08:25:11;20.40;;;10.15;;
25207;SDS011;13153;52.316;21.166;2023-03-23T08:27:39;18.80;;;9.57;;
25207;SDS011;13153;52.316;21.166;2023-03-23T08:30:12;20.85;;;9.93;;
25207;SDS011;13153;52.316;21.166;2023-03-23T08:32:47;19.33;;;9.27;;
25207;SDS011;13153;52.316;21.166;2023-03-23T08:35:15;16.67;;;9.32;;
25207;SDS011;13153;52.316;21.166;2023-03-23T08:37:42;14.80;;;8.63;;
25207;SDS011;13153;52.316;21.166;2023-03-23T08:40:10;15.68;;;8.55;;
25207;SDS011;13153;52.316;21.166;2023-03-23T08:42:40;15.63;;;8.30;;
25207;SDS011;13153;52.316;21.166;2023-03-23T08:45:09;16.98;;;8.82;;
25207;SDS011;13153;52.316;21.166;2023-03-23T08:47:39;14.90;;;8.02;;
25207;SDS011;13153;52.316;21.166;2023-03-23T08:50:07;18.17;;;8.10;;
25207;SDS011;13153;52.316;21.166;2023-03-23T08:52:37;18.80;;;8.20;;
25207;SDS011;13153;52.316;21.166;2023-03-23T08:55:04;16.02;;;7.70;;
25207;SDS011;13153;52.316;21.166;2023-03-23T08:57:30;12.75;;;7.25;;
25207;SDS011;13153;52.316;21.166;2023-03-23T08:59:56;17.65;;;7.80;;
25207;SDS011;13153;52.316;21.166;2023-03-23T09:02:25;14.50;;;7.65;;
25207;SDS011;13153;52.316;21.166;2023-03-23T09:04:52;13.52;;;7.70;;
25207;SDS011;13153;52.316;21.166;2023-03-23T09:07:19;15.82;;;7.72;;
25207;SDS011;13153;52.316;21.166;2023-03-23T09:09:45;18.88;;;7.13;;
25207;SDS011;13153;52.316;21.166;2023-03-23T09:12:11;13.27;;;7.78;;
25207;SDS011;13153;52.316;21.166;2023-03-23T09:14:38;12.63;;;7.03;;
25207;SDS011;13153;52.316;21.166;2023-03-23T09:17:04;14.50;;;7.05;;
25207;SDS011;13153;52.316;21.166;2023-03-23T09:19:32;14.73;;;7.32;;
25207;SDS011;13153;52.316;21.166;2023-03-23T09:22:00;10.65;;;6.60;;
25207;SDS011;13153;52.316;21.166;2023-03-23T09:24:27;12.23;;;6.88;;
25207;SDS011;13153;52.316;21.166;2023-03-23T09:26:53;11.65;;;6.32;;
25207;SDS011;13153;52.316;21.166;2023-03-23T09:29:19;13.25;;;6.85;;
25207;SDS011;13153;52.316;21.166;2023-03-23T09:31:45;14.10;;;7.13;;
25207;SDS011;13153;52.316;21.166;2023-03-23T09:34:12;16.75;;;6.88;;
25207;SDS011;13153;52.316;21.166;2023-03-23T09:36:43;10.32;;;6.03;;
25207;SDS011;13153;52.316;21.166;2023-03-23T09:39:11;17.23;;;6.03;;
25207;SDS011;13153;52.316;21.166;2023-03-23T09:47:27;11.23;;;6.20;;
25207;SDS011;13153;52.316;21.166;2023-03-23T09:50:12;10.70;;;5.38;;
25207;SDS011;13153;52.316;21.166;2023-03-23T09:52:51;8.25;;;5.35;;
25207;SDS011;13153;52.316;21.166;2023-03-23T09:55:24;12.35;;;5.88;;
25207;SDS011;13153;52.316;21.166;2023-03-23T09:58:01;13.30;;;5.55;;
25207;SDS011;13153;52.316;21.166;2023-03-23T10:03:43;12.45;;;5.50;;
25207;SDS011;13153;52.316;21.166;2023-03-23T10:06:13;14.20;;;5.80;;
25207;SDS011;13153;52.316;21.166;2023-03-23T10:08:44;12.95;;;5.80;;
25207;SDS011;13153;52.316;21.166;2023-03-23T10:20:25;10.82;;;5.80;;
25207;SDS011;13153;52.316;21.166;2023-03-23T10:30:03;10.65;;;5.35;;
25207;SDS011;13153;52.316;21.166;2023-03-23T10:36:16;10.90;;;5.18;;
25207;SDS011;13153;52.316;21.166;2023-03-23T10:39:11;10.25;;;5.43;;
25207;SDS011;13153;52.316;21.166;2023-03-23T10:41:43;9.82;;;4.60;;
25207;SDS011;13153;52.316;21.166;2023-03-23T10:44:15;8.70;;;4.93;;
25207;SDS011;13153;52.316;21.166;2023-03-23T10:49:26;11.50;;;4.90;;
25207;SDS011;13153;52.316;21.166;2023-03-23T10:55:10;10.02;;;5.15;;
25207;SDS011;13153;52.316;21.166;2023-03-23T10:57:46;8.60;;;4.60;;
25207;SDS011;13153;52.316;21.166;2023-03-23T11:00:26;9.18;;;5.07;;
25207;SDS011;13153;52.316;21.166;2023-03-23T11:03:01;10.20;;;4.57;;
25207;SDS011;13153;52.316;21.166;2023-03-23T11:05:40;11.45;;;4.15;;
25207;SDS011;13153;52.316;21.166;2023-03-23T11:08:26;10.13;;;3.95;;
25207;SDS011;13153;52.316;21.166;2023-03-23T11:13:42;12.88;;;4.38;;
25207;SDS011;13153;52.316;21.166;2023-03-23T11:16:22;7.75;;;3.40;;
25207;SDS011;13153;52.316;21.166;2023-03-23T11:18:57;8.35;;;3.72;;
25207;SDS011;13153;52.316;21.166;2023-03-23T11:21:26;7.75;;;3.70;;
25207;SDS011;13153;52.316;21.166;2023-03-23T11:23:54;5.95;;;3.60;;
25207;SDS011;13153;52.316;21.166;2023-03-23T11:26:28;9.23;;;3.88;;
25207;SDS011;13153;52.316;21.166;2023-03-23T11:29:19;11.05;;;3.85;;
25207;SDS011;13153;52.316;21.166;2023-03-23T11:34:33;9.38;;;3.75;;
25207;SDS011;13153;52.316;21.166;2023-03-23T11:37:28;9.93;;;4.18;;
25207;SDS011;13153;52.316;21.166;2023-03-23T11:42:43;14.32;;;4.50;;
25207;SDS011;13153;52.316;21.166;2023-03-23T11:48:20;9.85;;;4.07;;
25207;SDS011;13153;52.316;21.166;2023-03-23T11:51:13;6.85;;;2.53;;
25207;SDS011;13153;52.316;21.166;2023-03-23T11:56:51;8.07;;;2.30;;
25207;SDS011;13153;52.316;21.166;2023-03-23T11:59:27;3.50;;;2.22;;
25207;SDS011;13153;52.316;21.166;2023-03-23T12:19:41;5.68;;;2.53;;
25207;SDS011;13153;52.316;21.166;2023-03-23T12:34:36;6.47;;;2.63;;
25207;SDS011;13153;52.316;21.166;2023-03-23T12:40:09;3.97;;;2.55;;
25207;SDS011;13153;52.316;21.166;2023-03-23T12:46:07;5.07;;;2.60;;
25207;SDS011;13153;52.316;21.166;2023-03-23T12:48:59;3.50;;;2.60;;
25207;SDS011;13153;52.316;21.166;2023-03-23T12:59:44;5.38;;;2.67;;
25207;SDS011;13153;52.316;21.166;2023-03-23T13:02:29;8.65;;;2.72;;
25207;SDS011;13153;52.316;21.166;2023-03-23T13:05:03;4.07;;;2.50;;
25207;SDS011;13153;52.316;21.166;2023-03-23T13:07:38;9.07;;;2.97;;
25207;SDS011;13153;52.316;21.166;2023-03-23T13:10:38;6.07;;;3.10;;
25207;SDS011;13153;52.316;21.166;2023-03-23T13:13:19;6.40;;;3.10;;
25207;SDS011;13153;52.316;21.166;2023-03-23T13:19:00;6.93;;;3.10;;
25207;SDS011;13153;52.316;21.166;2023-03-23T13:24:31;8.77;;;3.95;;
25207;SDS011;13153;52.316;21.166;2023-03-23T13:27:04;7.88;;;3.72;;
25207;SDS011;13153;52.316;21.166;2023-03-23T13:29:33;11.52;;;4.20;;
25207;SDS011;13153;52.316;21.166;2023-03-23T13:35:04;9.50;;;4.03;;
25207;SDS011;13153;52.316;21.166;2023-03-23T13:37:47;8.73;;;3.80;;
25207;SDS011;13153;52.316;21.166;2023-03-23T13:42:57;7.40;;;3.20;;
25207;SDS011;13153;52.316;21.166;2023-03-23T13:50:48;6.75;;;3.65;;
25207;SDS011;13153;52.316;21.166;2023-03-23T13:53:28;7.50;;;3.45;;
25207;SDS011;13153;52.316;21.166;2023-03-23T13:58:47;11.95;;;4.28;;
25207;SDS011;13153;52.316;21.166;2023-03-23T14:01:36;7.15;;;3.80;;
25207;SDS011;13153;52.316;21.166;2023-03-23T14:04:07;8.07;;;3.67;;
25207;SDS011;13153;52.316;21.166;2023-03-23T14:06:40;9.00;;;3.83;;
25207;SDS011;13153;52.316;21.166;2023-03-23T14:09:18;12.68;;;4.03;;
25207;SDS011;13153;52.316;21.166;2023-03-23T14:11:57;10.18;;;3.85;;
25207;SDS011;13153;52.316;21.166;2023-03-23T14:14:44;9.68;;;3.50;;
25207;SDS011;13153;52.316;21.166;2023-03-23T14:17:21;7.40;;;3.33;;
25207;SDS011;13153;52.316;21.166;2023-03-23T14:19:52;6.68;;;2.90;;
25207;SDS011;13153;52.316;21.166;2023-03-23T14:22:25;6.53;;;3.22;;
25207;SDS011;13153;52.316;21.166;2023-03-23T14:25:01;7.40;;;3.08;;
25207;SDS011;13153;52.316;21.166;2023-03-23T14:27:39;9.82;;;3.22;;
25207;SDS011;13153;52.316;21.166;2023-03-23T14:30:08;9.35;;;3.40;;
25207;SDS011;13153;52.316;21.166;2023-03-23T14:32:44;6.85;;;3.50;;
25207;SDS011;13153;52.316;21.166;2023-03-23T14:35:16;12.38;;;3.50;;
25207;SDS011;13153;52.316;21.166;2023-03-23T14:38:14;9.30;;;3.60;;
25207;SDS011;13153;52.316;21.166;2023-03-23T14:43:14;15.85;;;4.90;;
25207;SDS011;13153;52.316;21.166;2023-03-23T14:45:52;10.88;;;4.45;;
25207;SDS011;13153;52.316;21.166;2023-03-23T14:48:23;7.40;;;3.88;;
25207;SDS011;13153;52.316;21.166;2023-03-23T14:50:50;10.80;;;3.60;;
25207;SDS011;13153;52.316;21.166;2023-03-23T14:53:31;9.52;;;4.38;;
25207;SDS011;13153;52.316;21.166;2023-03-23T14:56:14;8.75;;;4.18;;
25207;SDS011;13153;52.316;21.166;2023-03-23T14:58:45;6.22;;;4.22;;
25207;SDS011;13153;52.316;21.166;2023-03-23T15:01:19;9.88;;;4.35;;
25207;SDS011;13153;52.316;21.166;2023-03-23T15:04:02;11.45;;;4.38;;
25207;SDS011;13153;52.316;21.166;2023-03-23T15:06:44;8.05;;;4.00;;
25207;SDS011;13153;52.316;21.166;2023-03-23T15:09:26;10.15;;;4.30;;
25207;SDS011;13153;52.316;21.166;2023-03-23T15:11:54;7.05;;;4.32;;
25207;SDS011;13153;52.316;21.166;2023-03-23T15:14:46;9.05;;;4.38;;
25207;SDS011;13153;52.316;21.166;2023-03-23T15:17:21;7.63;;;4.28;;
25207;SDS011;13153;52.316;21.166;2023-03-23T15:20:17;7.78;;;4.63;;
25207;SDS011;13153;52.316;21.166;2023-03-23T15:22:49;7.95;;;4.57;;
25207;SDS011;13153;52.316;21.166;2023-03-23T15:25:50;9.15;;;5.07;;
25207;SDS011;13153;52.316;21.166;2023-03-23T15:28:20;10.13;;;4.85;;
25207;SDS011;13153;52.316;21.166;2023-03-23T15:30:55;9.82;;;4.85;;
25207;SDS011;13153;52.316;21.166;2023-03-23T15:33:26;7.90;;;4.68;;
25207;SDS011;13153;52.316;21.166;2023-03-23T15:36:04;7.28;;;4.22;;
25207;SDS011;13153;52.316;21.166;2023-03-23T15:38:45;10.52;;;4.60;;
25207;SDS011;13153;52.316;21.166;2023-03-23T15:41:23;10.65;;;5.25;;
25207;SDS011;13153;52.316;21.166;2023-03-23T15:43:56;12.43;;;5.00;;
25207;SDS011;13153;52.316;21.166;2023-03-23T15:46:33;9.18;;;4.88;;
25207;SDS011;13153;52.316;21.166;2023-03-23T15:51:28;8.50;;;4.35;;
25207;SDS011;13153;52.316;21.166;2023-03-23T15:53:57;10.15;;;4.95;;
25207;SDS011;13153;52.316;21.166;2023-03-23T15:56:24;9.32;;;4.30;;
25207;SDS011;13153;52.316;21.166;2023-03-23T15:58:51;6.63;;;4.72;;
25207;SDS011;13153;52.316;21.166;2023-03-23T16:01:19;8.05;;;4.28;;
25207;SDS011;13153;52.316;21.166;2023-03-23T16:03:53;8.45;;;4.95;;
25207;SDS011;13153;52.316;21.166;2023-03-23T16:06:25;10.63;;;4.40;;
25207;SDS011;13153;52.316;21.166;2023-03-23T16:08:55;11.23;;;5.30;;
25207;SDS011;13153;52.316;21.166;2023-03-23T16:11:22;6.88;;;4.60;;
25207;SDS011;13153;52.316;21.166;2023-03-23T16:13:51;10.38;;;4.72;;
25207;SDS011;13153;52.316;21.166;2023-03-23T16:16:19;9.93;;;5.15;;
25207;SDS011;13153;52.316;21.166;2023-03-23T16:18:51;10.82;;;5.65;;
25207;SDS011;13153;52.316;21.166;2023-03-23T16:21:17;10.95;;;5.13;;
25207;SDS011;13153;52.316;21.166;2023-03-23T16:23:43;13.25;;;5.30;;
25207;SDS011;13153;52.316;21.166;2023-03-23T16:26:10;9.55;;;5.47;;
25207;SDS011;13153;52.316;21.166;2023-03-23T16:28:38;8.32;;;4.80;;
25207;SDS011;13153;52.316;21.166;2023-03-23T16:31:05;9.63;;;5.15;;
25207;SDS011;13153;52.316;21.166;2023-03-23T16:33:31;8.13;;;5.20;;
25207;SDS011;13153;52.316;21.166;2023-03-23T16:35:57;8.88;;;5.78;;
25207;SDS011;13153;52.316;21.166;2023-03-23T16:38:23;10.25;;;4.90;;
25207;SDS011;13153;52.316;21.166;2023-03-23T16:40:49;8.18;;;4.88;;
25207;SDS011;13153;52.316;21.166;2023-03-23T16:43:15;9.63;;;5.38;;
25207;SDS011;13153;52.316;21.166;2023-03-23T16:45:42;14.20;;;5.13;;
25207;SDS011;13153;52.316;21.166;2023-03-23T16:48:10;11.73;;;4.30;;
25207;SDS011;13153;52.316;21.166;2023-03-23T16:50:40;12.43;;;4.30;;
25207;SDS011;13153;52.316;21.166;2023-03-23T16:53:07;9.73;;;4.30;;
25207;SDS011;13153;52.316;21.166;2023-03-23T16:55:34;8.73;;;4.07;;
25207;SDS011;13153;52.316;21.166;2023-03-23T16:58:01;7.45;;;4.60;;
25207;SDS011;13153;52.316;21.166;2023-03-23T17:00:28;11.27;;;5.00;;
25207;SDS011;13153;52.316;21.166;2023-03-23T17:02:54;8.30;;;4.55;;